createdAt,value
2022-11-10T00:01:38.156Z,60.42
2022-11-10T00:04:24.817Z,61.12
2022-11-10T00:07:10.977Z,65.94
2022-11-10T00:09:57.544Z,65.52
2022-11-10T00:12:43.770Z,62.98
2022-11-10T00:15:48.561Z,61.03
2022-11-10T00:18:35.674Z,56.67
2022-11-10T00:21:21.925Z,56.91
2022-11-10T00:24:08.721Z,58.30
2022-11-10T00:26:55.791Z,59.71
2022-11-10T00:29:42.671Z,60.83
2022-11-10T00:32:29.264Z,65.58
2022-11-10T00:35:15.620Z,64.32
2022-11-10T00:38:02.073Z,60.36
2022-11-10T00:40:48.720Z,56.56
2022-11-10T00:43:35.332Z,56.37
2022-11-10T00:46:21.821Z,57.75
2022-11-10T00:49:08.082Z,59.25
2022-11-10T00:51:54.379Z,60.26
2022-11-10T00:54:41.051Z,61.23
2022-11-10T00:57:27.336Z,66.00
2022-11-10T01:00:13.694Z,64.94
2022-11-10T01:03:02.629Z,61.20
2022-11-10T01:05:49.162Z,56.23
2022-11-10T01:08:36.129Z,55.87
2022-11-10T01:11:27.670Z,57.56
2022-11-10T01:14:14.151Z,58.85
2022-11-10T01:17:00.520Z,60.15
2022-11-10T01:19:47.003Z,61.07
2022-11-10T01:22:33.215Z,65.71
2022-11-10T01:25:20.520Z,64.88
2022-11-10T01:28:06.948Z,60.90
2022-11-10T01:30:58.256Z,56.98
2022-11-10T01:33:45.334Z,57.00
2022-11-10T01:36:31.915Z,58.39
2022-11-10T01:39:18.174Z,59.92
2022-11-10T01:42:04.584Z,60.69
2022-11-10T01:45:24.694Z,65.64
2022-11-10T01:48:15.162Z,63.68
2022-11-10T01:51:10.402Z,60.37
2022-11-10T01:54:00.015Z,56.83
2022-11-10T01:56:50.413Z,56.93
2022-11-10T01:59:40.590Z,58.33
2022-11-10T02:02:38.343Z,59.59
2022-11-10T02:05:25.678Z,60.83
2022-11-10T02:08:14.650Z,65.56
2022-11-10T02:11:01.234Z,64.00
2022-11-10T02:13:47.853Z,60.10
2022-11-10T02:16:34.266Z,56.51
2022-11-10T02:19:24.158Z,56.71
2022-11-10T02:22:10.369Z,58.00
2022-11-10T02:24:57.430Z,59.51
2022-11-10T02:27:44.093Z,60.28
2022-11-10T02:30:30.993Z,64.97
2022-11-10T02:33:20.654Z,64.35
2022-11-10T02:36:07.446Z,60.04
2022-11-10T02:38:53.964Z,55.76
2022-11-10T02:41:40.342Z,55.99
2022-11-10T02:44:26.567Z,57.55
2022-11-10T02:47:13.128Z,58.98
2022-11-10T02:49:59.345Z,59.98
2022-11-10T02:52:45.479Z,61.03
2022-11-10T02:55:32.284Z,65.77
2022-11-10T02:58:18.797Z,64.29
2022-11-10T03:01:06.084Z,60.82
2022-11-10T03:03:52.789Z,57.15
2022-11-10T03:06:39.399Z,57.23
2022-11-10T03:09:25.656Z,58.80
2022-11-10T03:12:12.322Z,59.95
2022-11-10T03:14:58.724Z,61.13
2022-11-10T03:17:44.785Z,66.11
2022-11-10T03:20:31.433Z,64.55
2022-11-10T03:23:18.466Z,60.54
2022-11-10T03:26:05.977Z,56.38
2022-11-10T03:28:52.326Z,56.44
2022-11-10T03:31:38.829Z,58.00
2022-11-10T03:34:29.349Z,59.61
2022-11-10T03:37:17.953Z,60.75
2022-11-10T03:40:04.862Z,61.68
2022-11-10T03:42:51.516Z,65.64
2022-11-10T03:45:37.948Z,64.69
2022-11-10T03:48:24.241Z,62.90
2022-11-10T03:51:10.857Z,60.76
2022-11-10T03:53:57.235Z,58.24
2022-11-10T03:56:43.769Z,58.08
2022-11-10T03:59:30.284Z,59.22
2022-11-10T04:02:16.454Z,60.51
2022-11-10T04:05:22.063Z,61.37
2022-11-10T04:08:32.792Z,66.88
2022-11-10T04:11:38.617Z,62.89
2022-11-10T04:14:43.859Z,60.46
2022-11-10T04:17:31.462Z,56.45
2022-11-10T04:20:18.015Z,56.68
2022-11-10T04:23:23.362Z,58.13
2022-11-10T04:26:30.718Z,59.68
2022-11-10T04:29:19.243Z,61.03
2022-11-10T04:32:06.023Z,65.12
2022-11-10T04:34:52.513Z,64.87
2022-11-10T04:37:38.910Z,61.71
2022-11-10T04:40:25.610Z,59.56
2022-11-10T04:43:12.070Z,56.37
2022-11-10T04:45:59.485Z,56.55
2022-11-10T04:48:46.417Z,58.69
2022-11-10T04:51:35.773Z,59.64
2022-11-10T04:54:22.660Z,60.85
2022-11-10T04:57:09.296Z,64.64
2022-11-10T04:59:55.798Z,65.03
2022-11-10T05:02:42.501Z,62.25
2022-11-10T05:05:29.819Z,59.99
2022-11-10T05:08:16.445Z,55.60
2022-11-10T05:11:03.304Z,55.69
2022-11-10T05:13:49.859Z,56.73
2022-11-10T05:16:37.701Z,58.47
2022-11-10T05:19:24.068Z,59.67
2022-11-10T05:22:10.344Z,60.68
2022-11-10T05:24:57.074Z,61.39
2022-11-10T05:27:43.335Z,66.45
2022-11-10T05:30:30.182Z,64.19
2022-11-10T05:33:16.562Z,61.22
2022-11-10T05:36:04.116Z,56.60
2022-11-10T05:38:50.792Z,56.04
2022-11-10T05:41:37.263Z,57.64
2022-11-10T05:44:23.513Z,58.74
2022-11-10T05:47:10.236Z,59.91
2022-11-10T05:49:56.755Z,60.34
2022-11-10T05:52:50.025Z,64.40
2022-11-10T05:55:36.947Z,65.19
2022-11-10T05:58:23.376Z,60.63
2022-11-10T06:01:09.943Z,56.16
2022-11-10T06:03:56.391Z,55.84
2022-11-10T06:06:42.938Z,57.10
2022-11-10T06:09:29.363Z,58.50
2022-11-10T06:12:15.894Z,59.78
2022-11-10T06:15:02.939Z,60.96
2022-11-10T06:17:49.658Z,65.12
2022-11-10T06:20:36.527Z,65.01
2022-11-10T06:23:23.525Z,61.57
2022-11-10T06:26:10.552Z,57.36
2022-11-10T06:28:57.826Z,57.09
2022-11-10T06:31:44.154Z,57.89
2022-11-10T06:34:30.542Z,59.53
2022-11-10T06:37:17.040Z,60.59
2022-11-10T06:40:03.702Z,64.29
2022-11-10T06:42:50.089Z,66.01
2022-11-10T06:45:36.541Z,64.73
2022-11-10T06:48:22.887Z,62.20
2022-11-10T06:51:09.535Z,60.36
2022-11-10T06:53:56.173Z,58.21
2022-11-10T06:56:42.961Z,59.33
2022-11-10T06:59:29.342Z,60.78
2022-11-10T07:02:16.319Z,64.61
2022-11-10T07:05:02.759Z,64.06
2022-11-10T07:07:48.971Z,61.73
2022-11-10T07:10:36.165Z,59.41
2022-11-10T07:13:23.818Z,58.27
2022-11-10T07:16:11.371Z,59.91
2022-11-10T07:18:57.830Z,62.26
2022-11-10T07:21:44.441Z,65.60
2022-11-10T07:24:30.829Z,63.55
2022-11-10T07:27:17.430Z,61.34
2022-11-10T07:30:05.125Z,60.97
2022-11-10T07:32:59.161Z,59.78
2022-11-10T07:35:52.782Z,58.60
2022-11-10T07:38:39.675Z,60.46
2022-11-10T07:41:26.206Z,64.14
2022-11-10T07:44:12.270Z,64.01
2022-11-10T07:46:58.964Z,62.56
2022-11-10T07:49:45.798Z,60.87
2022-11-10T07:52:32.362Z,59.58
2022-11-10T07:55:18.843Z,58.76
2022-11-10T07:58:05.937Z,60.07
2022-11-10T08:00:52.633Z,61.47
2022-11-10T08:03:39.086Z,65.43
2022-11-10T08:06:26.109Z,63.04
2022-11-10T08:09:12.629Z,61.92
2022-11-10T08:11:59.108Z,60.21
2022-11-10T08:14:45.738Z,58.92
2022-11-10T08:17:32.289Z,57.64
2022-11-10T08:20:18.930Z,59.62
2022-11-10T08:23:06.693Z,62.25
2022-11-10T08:25:53.326Z,61.96
2022-11-10T08:28:39.724Z,59.10
2022-11-10T08:31:26.117Z,58.51
2022-11-10T08:34:13.012Z,59.06
2022-11-10T08:36:59.498Z,62.18
2022-11-10T08:39:45.868Z,64.80
2022-11-10T08:42:31.967Z,61.80
2022-11-10T08:45:18.576Z,57.90
2022-11-10T08:48:24.407Z,57.92
2022-11-10T08:51:11.454Z,59.08
2022-11-10T08:53:58.142Z,61.24
2022-11-10T08:56:44.813Z,63.38
2022-11-10T08:59:31.377Z,60.39
2022-11-10T09:02:18.182Z,58.60
2022-11-10T09:05:05.356Z,58.70
2022-11-10T09:07:52.265Z,59.52
2022-11-10T09:10:41.733Z,62.43
2022-11-10T09:13:30.256Z,61.23
2022-11-10T09:16:17.544Z,57.59
2022-11-10T09:19:04.156Z,56.63
2022-11-10T09:21:50.905Z,57.58
2022-11-10T09:24:37.220Z,58.77
2022-11-10T09:27:23.716Z,58.78
2022-11-10T09:30:16.320Z,60.03
2022-11-10T09:33:04.312Z,60.12
2022-11-10T09:35:51.039Z,60.84
2022-11-10T09:38:39.905Z,59.78
2022-11-10T09:41:49.923Z,60.21
2022-11-10T09:44:39.556Z,59.22
2022-11-10T09:47:56.133Z,59.83
2022-11-10T09:50:47.901Z,58.91
2022-11-10T09:53:52.278Z,58.54
2022-11-10T09:56:39.170Z,58.59
2022-11-10T10:00:01.570Z,57.07
2022-11-10T10:03:12.632Z,57.91
2022-11-10T10:06:10.754Z,56.44
2022-11-10T10:09:00.922Z,56.57
2022-11-10T10:12:22.445Z,56.55
2022-11-10T10:15:25.406Z,56.45
2022-11-10T10:18:27.031Z,55.71
2022-11-10T10:21:33.120Z,54.74
2022-11-10T10:24:22.426Z,54.61
2022-11-10T10:27:20.424Z,54.11
2022-11-10T10:30:20.386Z,54.71
2022-11-10T10:33:18.896Z,55.34
2022-11-10T10:36:13.740Z,54.80
2022-11-10T10:39:17.861Z,54.99
2022-11-10T10:42:09.635Z,55.15
2022-11-10T10:45:25.471Z,55.30
2022-11-10T10:48:30.319Z,54.44
2022-11-10T10:51:30.704Z,54.46
2022-11-10T10:54:33.094Z,54.27
2022-11-10T10:57:25.600Z,53.76
2022-11-10T11:00:18.135Z,53.48
2022-11-10T11:03:07.660Z,54.00
2022-11-10T11:06:21.837Z,53.57
2022-11-10T11:09:17.001Z,54.42
2022-11-10T11:12:11.359Z,54.38
2022-11-10T11:15:27.015Z,53.59
2022-11-10T11:18:18.004Z,54.40
2022-11-10T11:21:33.663Z,53.50
2022-11-10T11:24:20.786Z,52.24
2022-11-10T11:27:23.662Z,52.62
2022-11-10T11:30:22.847Z,53.35
2022-11-10T11:33:29.491Z,53.89
2022-11-10T11:36:19.138Z,54.66
2022-11-10T11:39:40.087Z,55.15
2022-11-10T11:42:43.704Z,55.50
2022-11-10T11:46:00.975Z,56.27
2022-11-10T11:49:26.436Z,56.87
2022-11-10T11:52:40.547Z,57.21
2022-11-10T11:55:52.599Z,57.08
2022-11-10T11:58:45.958Z,56.90
2022-11-10T12:01:43.293Z,57.25
2022-11-10T12:04:46.046Z,57.42
2022-11-10T12:07:59.550Z,57.77
2022-11-10T12:11:05.499Z,58.25
2022-11-10T12:14:17.080Z,57.73
2022-11-10T12:17:19.261Z,57.49
2022-11-10T12:20:26.816Z,56.90
2022-11-10T12:23:28.722Z,56.27
2022-11-10T12:26:36.540Z,56.11
2022-11-10T12:29:43.568Z,55.72
2022-11-10T12:36:25.810Z,54.46
2022-11-10T12:39:45.500Z,53.60
2022-11-10T12:42:38.546Z,53.29
2022-11-10T12:45:29.038Z,52.62
2022-11-10T12:48:21.692Z,51.66
2022-11-10T12:51:14.255Z,51.37
2022-11-10T12:54:01.638Z,52.13
2022-11-10T12:57:25.925Z,52.33
2022-11-10T13:01:01.381Z,51.60
2022-11-10T13:04:07.971Z,51.80
2022-11-10T13:07:13.108Z,51.51
2022-11-10T13:10:22.528Z,52.00
2022-11-10T13:13:15.198Z,51.83
2022-11-10T13:16:02.758Z,51.49
2022-11-10T13:18:49.490Z,51.21
2022-11-10T13:22:15.744Z,50.91
2022-11-10T13:25:40.433Z,51.28
2022-11-10T13:28:49.012Z,51.76
2022-11-10T13:31:39.964Z,52.44
2022-11-10T13:34:33.373Z,52.24
2022-11-10T13:37:35.283Z,51.90
2022-11-10T13:40:24.935Z,51.19
2022-11-10T13:43:24.709Z,50.53
2022-11-10T13:46:11.368Z,50.58
2022-11-10T13:49:23.399Z,49.88
2022-11-10T13:52:17.975Z,48.25
2022-11-10T13:55:23.873Z,47.26
2022-11-10T13:58:12.706Z,45.70
2022-11-10T14:01:17.916Z,44.31
2022-11-10T14:04:05.204Z,43.62
2022-11-10T14:06:55.216Z,42.89
2022-11-10T14:09:46.452Z,42.50
2022-11-10T14:12:53.503Z,42.03
2022-11-10T14:15:44.519Z,41.77
2022-11-10T14:18:42.236Z,41.74
2022-11-10T14:21:33.302Z,41.08
2022-11-10T14:24:25.071Z,40.90
2022-11-10T14:27:20.370Z,40.55
2022-11-10T14:30:26.942Z,41.08
2022-11-10T14:33:15.990Z,41.42
2022-11-10T14:36:09.093Z,41.63
2022-11-10T14:38:58.154Z,41.91
2022-11-10T14:41:48.600Z,42.06
2022-11-10T14:44:35.612Z,42.58
2022-11-10T14:47:31.198Z,43.13
2022-11-10T14:50:33.916Z,44.53
2022-11-10T14:53:29.577Z,45.99
2022-11-10T14:56:19.718Z,48.26
2022-11-10T14:59:11.269Z,49.93
2022-11-10T15:02:01.001Z,51.08
2022-11-10T15:04:50.236Z,52.64
2022-11-10T15:07:39.987Z,53.28
2022-11-10T15:10:49.560Z,54.48
2022-11-10T15:13:39.845Z,55.23
2022-11-10T15:16:32.876Z,55.63
2022-11-10T15:25:53.160Z,57.90
2022-11-10T15:28:42.220Z,58.32
2022-11-10T15:31:30.990Z,58.61
2022-11-10T15:34:31.422Z,59.13
2022-11-10T15:37:27.399Z,59.45
2022-11-10T15:40:30.097Z,60.08
2022-11-10T15:43:26.784Z,60.30
2022-11-10T15:46:24.986Z,61.10
2022-11-10T15:49:20.723Z,61.18
2022-11-10T15:52:21.455Z,61.23
2022-11-10T15:55:19.975Z,61.47
2022-11-10T15:58:24.403Z,65.06
2022-11-10T16:01:12.398Z,65.72
2022-11-10T16:03:59.411Z,59.84
2022-11-10T16:06:46.255Z,55.39
2022-11-10T16:09:33.649Z,54.12
2022-11-10T16:12:21.446Z,54.98
2022-11-10T16:15:16.481Z,56.27
2022-11-10T16:18:04.444Z,56.75
2022-11-10T16:20:52.247Z,58.11
2022-11-10T16:23:38.701Z,59.92
2022-11-10T16:26:25.886Z,60.11
2022-11-10T16:29:14.177Z,60.54
2022-11-10T16:32:00.531Z,60.90
2022-11-10T16:34:47.014Z,61.53
2022-11-10T16:37:35.109Z,61.75
2022-11-10T16:40:24.653Z,66.56
2022-11-10T16:43:16.088Z,66.93
2022-11-10T16:46:05.785Z,60.89
2022-11-10T16:48:56.890Z,55.78
2022-11-10T16:51:48.544Z,54.53
2022-11-10T16:54:35.375Z,55.28
2022-11-10T16:57:21.978Z,56.30
2022-11-10T17:00:09.461Z,56.62
2022-11-10T17:03:06.667Z,57.88
2022-11-10T17:05:53.829Z,59.04
2022-11-10T17:08:41.179Z,59.74
2022-11-10T17:11:27.504Z,60.16
2022-11-10T17:14:14.513Z,60.70
2022-11-10T17:17:01.059Z,60.86
2022-11-10T17:19:48.695Z,61.63
2022-11-10T17:22:37.353Z,65.88
2022-11-10T17:25:26.982Z,66.00
2022-11-10T17:28:15.131Z,61.17
2022-11-10T17:31:03.312Z,56.86
2022-11-10T17:33:50.124Z,56.19
2022-11-10T17:36:36.864Z,56.97
2022-11-10T17:39:23.249Z,57.92
2022-11-10T17:42:13.547Z,58.69
2022-11-10T17:45:00.189Z,59.36
2022-11-10T17:47:48.168Z,60.03
2022-11-10T17:50:36.268Z,60.46
2022-11-10T17:53:26.184Z,60.93
2022-11-10T17:56:13.448Z,61.45
2022-11-10T17:59:00.684Z,65.67
2022-11-10T18:01:47.381Z,65.77
2022-11-10T18:04:34.272Z,60.74
2022-11-10T18:07:20.962Z,55.61
2022-11-10T18:10:11.452Z,55.03
2022-11-10T18:12:57.893Z,56.23
2022-11-10T18:15:45.953Z,57.43
2022-11-10T18:18:32.644Z,61.02
2022-11-10T18:21:18.913Z,66.16
2022-11-10T18:24:06.229Z,63.30
2022-11-10T18:26:52.741Z,56.04
2022-11-10T18:29:39.822Z,54.72
2022-11-10T18:32:26.909Z,55.70
2022-11-10T18:35:13.866Z,56.76
2022-11-10T18:38:00.533Z,57.90
2022-11-10T18:40:46.942Z,58.91
2022-11-10T18:43:34.600Z,59.32
2022-11-10T18:46:21.251Z,60.06
2022-11-10T18:49:07.840Z,60.64
2022-11-10T18:51:55.600Z,61.15
2022-11-10T18:54:42.143Z,66.25
2022-11-10T18:57:28.594Z,64.98
2022-11-10T19:00:16.224Z,58.94
2022-11-10T19:03:05.829Z,54.96
2022-11-10T19:05:58.379Z,55.32
2022-11-10T19:08:45.304Z,56.37
2022-11-10T19:11:33.301Z,57.58
2022-11-10T19:14:19.826Z,59.10
2022-11-10T19:17:10.646Z,60.03
2022-11-10T19:19:57.108Z,60.24
2022-11-10T19:22:43.921Z,60.82
2022-11-10T19:25:30.779Z,61.40
2022-11-10T19:28:17.513Z,66.01
2022-11-10T19:31:07.504Z,65.45
2022-11-10T19:33:56.578Z,59.53
2022-11-10T19:36:43.288Z,54.90
2022-11-10T19:39:29.442Z,54.80
2022-11-10T19:42:15.973Z,56.08
2022-11-10T19:45:02.776Z,57.23
2022-11-10T19:47:49.051Z,58.14
2022-11-10T19:50:35.579Z,59.18
2022-11-10T19:53:23.053Z,60.06
2022-11-10T19:56:15.868Z,60.75
2022-11-10T19:59:02.292Z,61.52
2022-11-10T20:01:48.850Z,66.94
2022-11-10T20:04:55.613Z,65.40
2022-11-10T20:08:04.202Z,59.88
2022-11-10T20:10:53.930Z,55.06
2022-11-10T20:13:40.681Z,55.50
2022-11-10T20:16:27.555Z,56.81
2022-11-10T20:19:14.483Z,57.73
2022-11-10T20:22:00.950Z,58.94
2022-11-10T20:24:51.160Z,59.69
2022-11-10T20:27:38.066Z,60.24
2022-11-10T20:30:25.071Z,60.84
2022-11-10T20:33:12.250Z,61.27
2022-11-10T20:36:20.401Z,65.76
2022-11-10T20:39:07.342Z,64.14
2022-11-10T20:41:53.874Z,59.61
2022-11-10T20:44:40.728Z,55.03
2022-11-10T20:47:28.783Z,55.21
2022-11-10T20:50:19.175Z,56.26
2022-11-10T20:53:08.422Z,57.22
2022-11-10T20:56:00.786Z,58.42
2022-11-10T20:58:47.546Z,59.17
2022-11-10T21:01:35.330Z,59.86
2022-11-10T21:04:23.346Z,60.43
2022-11-10T21:07:10.473Z,61.09
2022-11-10T21:09:57.138Z,65.61
2022-11-10T21:12:49.714Z,64.72
2022-11-10T21:15:39.748Z,60.20
2022-11-10T21:18:29.472Z,54.80
2022-11-10T21:21:21.917Z,54.28
2022-11-10T21:24:09.688Z,55.33
2022-11-10T21:26:57.026Z,56.93
2022-11-10T21:29:43.515Z,58.15
2022-11-10T21:32:29.788Z,58.87
2022-11-10T21:35:16.841Z,59.47
2022-11-10T21:38:04.769Z,60.46
2022-11-10T21:40:51.208Z,60.83
2022-11-10T21:43:38.831Z,61.46
2022-11-10T21:46:25.418Z,66.05
2022-11-10T21:49:11.821Z,65.89
2022-11-10T21:51:58.450Z,60.70
2022-11-10T21:54:45.504Z,55.92
2022-11-10T21:57:32.055Z,55.79
2022-11-10T22:00:18.596Z,56.75
2022-11-10T22:03:09.791Z,57.71
2022-11-10T22:06:03.768Z,58.54
2022-11-10T22:08:55.520Z,59.05
2022-11-10T22:12:00.793Z,59.59
2022-11-10T22:15:06.518Z,60.30
2022-11-10T22:18:11.590Z,60.83
2022-11-10T22:20:58.551Z,66.02
2022-11-10T22:24:03.934Z,64.89
2022-11-10T22:26:50.935Z,59.77
2022-11-10T22:29:37.945Z,54.28
2022-11-10T22:32:24.522Z,54.12
2022-11-10T22:35:31.153Z,55.57
2022-11-10T22:38:17.599Z,56.70
2022-11-10T22:41:23.313Z,57.61
2022-11-10T22:44:14.616Z,58.34
2022-11-10T22:47:01.385Z,59.21
2022-11-10T22:49:47.771Z,60.16
2022-11-10T22:52:34.559Z,60.63
2022-11-10T22:55:21.189Z,61.35
2022-11-10T22:58:07.656Z,65.85
2022-11-10T23:00:54.140Z,65.98
2022-11-10T23:03:43.980Z,59.88
2022-11-10T23:06:31.391Z,53.69
2022-11-10T23:09:18.344Z,53.62
2022-11-10T23:12:05.937Z,54.64
2022-11-10T23:14:53.883Z,55.75
2022-11-10T23:17:40.837Z,56.89
2022-11-10T23:20:27.775Z,57.89
2022-11-10T23:23:14.972Z,58.92
2022-11-10T23:26:08.417Z,59.49
2022-11-10T23:28:55.654Z,59.79
2022-11-10T23:31:42.677Z,60.37
2022-11-10T23:34:29.223Z,61.59
2022-11-10T23:37:15.763Z,70.26
2022-11-10T23:40:05.739Z,67.27
2022-11-10T23:42:55.317Z,59.68
2022-11-10T23:46:05.793Z,53.70
2022-11-10T23:48:50.343Z,54.06
2022-11-10T23:51:37.072Z,55.29
2022-11-10T23:54:23.895Z,56.04
2022-11-10T23:57:10.607Z,57.15
2022-11-10T23:59:57.577Z,58.00
